Time;durP1;ratioP1;P1;durP2;ratioP2;P2;SDS_P1;SDS_P2;PMS_P1;PMS_P2;Temp;Humidity;BMP_temperature;BMP_pressure;BME280_temperature;BME280_humidity;BME280_pressure;Samples;Min_cycle;Max_cycle;Signal;HPM_P1;HPM_P2
2021/05/22 00:01:42;;;;;;;6.73;3.10;;;;;;;12.08;58.54;98057.79;127418;1095;64138;-76
2021/05/22 00:04:09;;;;;;;6.20;3.30;;;;;;;12.04;58.33;98062.60;126940;1095;63434;-76
2021/05/22 00:06:36;;;;;;;4.75;2.80;;;;;;;12.01;58.27;98062.88;127723;1095;64179;-76
2021/05/22 00:09:06;;;;;;;3.00;2.17;;;;;;;12.00;58.70;98061.19;127453;1095;64266;-75
2021/05/22 00:11:50;;;;;;;2.60;2.20;;;;;;;11.99;58.86;98043.45;127472;1095;64323;-76
2021/05/22 00:14:20;;;;;;;2.80;2.47;;;;;;;12.01;58.79;98046.81;127728;1095;64183;-77
2021/05/22 00:16:47;;;;;;;3.93;2.80;;;;;;;12.01;58.37;98052.17;126586;1095;63444;-76
2021/05/22 00:19:14;;;;;;;4.10;2.43;;;;;;;12.01;58.60;98056.68;126542;1095;64144;-76
2021/05/22 00:21:40;;;;;;;3.03;2.30;;;;;;;12.00;58.58;98066.54;127426;1096;64291;-76
2021/05/22 00:24:07;;;;;;;3.70;2.37;;;;;;;11.99;58.46;98067.53;127443;1090;64326;-76
2021/05/22 00:26:34;;;;;;;3.70;2.60;;;;;;;11.97;58.76;98058.81;127442;1097;63464;-76
2021/05/22 00:29:04;;;;;;;4.70;2.50;;;;;;;11.96;58.69;98058.94;127437;1095;63002;-76
2021/05/22 00:31:33;;;;;;;5.60;2.57;;;;;;;11.95;58.56;98058.09;127438;1090;64214;-76
2021/05/22 00:34:03;;;;;;;3.30;2.03;;;;;;;11.96;58.55;98059.81;127459;1096;63776;-76
2021/05/22 00:36:32;;;;;;;2.70;2.00;;;;;;;11.96;58.58;98073.19;126582;1095;63139;-76
2021/05/22 00:39:02;;;;;;;2.83;2.10;;;;;;;11.98;58.72;98068.53;127486;1090;64220;-76
2021/05/22 00:41:29;;;;;;;4.60;2.37;;;;;;;12.00;58.83;98052.32;127485;1090;64265;-76
2021/05/22 00:43:56;;;;;;;3.27;2.10;;;;;;;12.00;58.78;98044.30;127437;1095;64364;-77
2021/05/22 00:46:25;;;;;;;4.97;2.43;;;;;;;11.97;59.05;98037.41;126608;1090;64284;-76
2021/05/22 00:48:52;;;;;;;4.43;2.03;;;;;;;11.96;59.06;98033.05;127730;1095;64706;-75
2021/05/22 00:51:21;;;;;;;3.77;2.10;;;;;;;11.93;59.10;98033.33;126596;1097;62924;-75
2021/05/22 00:53:53;;;;;;;4.93;2.17;;;;;;;11.89;59.09;98037.27;126834;1097;63443;-74
2021/05/22 00:56:20;;;;;;;3.77;2.13;;;;;;;11.85;58.92;98025.19;127733;1095;64291;-77
2021/05/22 00:58:47;;;;;;;3.73;2.20;;;;;;;11.80;59.38;98019.38;127463;1095;63786;-77
2021/05/22 01:01:14;;;;;;;3.27;1.90;;;;;;;11.78;59.47;98026.72;127400;1095;64240;-77
2021/05/22 01:03:49;;;;;;;3.90;2.00;;;;;;;11.74;59.53;98020.80;127453;1095;64240;-77
2021/05/22 01:06:31;;;;;;;8.45;2.45;;;;;;;11.75;59.30;98024.31;127464;1095;64217;-77
2021/05/22 01:09:08;;;;;;;4.07;1.90;;;;;;;11.75;59.43;98017.13;127413;1095;64774;-77
2021/05/22 01:11:41;;;;;;;2.63;1.90;;;;;;;11.76;59.70;98009.95;126582;1090;64323;-77
2021/05/22 01:14:17;;;;;;;2.67;2.27;;;;;;;11.75;59.72;97993.05;126912;1095;62328;-77
2021/05/22 01:16:49;;;;;;;3.30;2.40;;;;;;;11.75;59.59;97986.86;127505;1095;64166;-77
2021/05/22 01:19:34;;;;;;;2.97;2.13;;;;;;;11.74;59.73;97982.50;127442;1096;64147;-77
2021/05/22 01:22:01;;;;;;;2.50;2.07;;;;;;;11.71;59.52;97983.65;127422;1095;64262;-77
2021/05/22 01:24:30;;;;;;;2.90;2.30;;;;;;;11.69;59.54;97998.14;127435;1096;64290;-77
2021/05/22 01:26:57;;;;;;;3.27;2.50;;;;;;;11.66;59.50;97993.09;127700;1095;64211;-76
2021/05/22 01:29:24;;;;;;;5.47;2.97;;;;;;;11.62;59.83;97992.52;127417;1096;64345;-76
2021/05/22 01:31:55;;;;;;;2.95;2.15;;;;;;;11.59;59.81;97990.14;127488;1096;64285;-77
2021/05/22 01:34:24;;;;;;;3.47;2.30;;;;;;;11.57;59.82;97979.56;127457;1095;64263;-77
2021/05/22 01:36:51;;;;;;;2.20;2.00;;;;;;;11.56;59.82;97977.88;126572;1095;62988;-77
2021/05/22 01:39:18;;;;;;;2.90;2.20;;;;;;;11.57;59.95;97976.89;127438;1095;63019;-76
2021/05/22 01:41:47;;;;;;;2.50;2.25;;;;;;;11.61;59.91;97970.28;127432;1095;62328;-76
2021/05/22 01:44:20;;;;;;;5.67;2.30;;;;;;;11.63;59.90;97970.97;127449;1095;64281;-76
2021/05/22 01:46:51;;;;;;;3.47;2.60;;;;;;;11.67;59.93;97970.70;127471;1095;65780;-76
2021/05/22 01:49:25;;;;;;;5.23;2.00;;;;;;;11.67;60.12;97968.87;127730;1095;64192;-76
2021/05/22 01:52:06;;;;;;;4.53;2.73;;;;;;;11.66;59.99;97975.20;127418;1090;64186;-75
2021/05/22 01:54:37;;;;;;;3.03;2.47;;;;;;;11.66;60.35;97977.05;127436;1095;62296;-76
2021/05/22 01:57:04;;;;;;;3.50;2.23;;;;;;;11.67;60.21;97992.09;127433;1095;64246;-76
2021/05/22 01:59:35;;;;;;;2.40;2.20;;;;;;;11.66;60.47;97999.28;127432;1095;64419;-76
2021/05/22 02:02:01;;;;;;;2.87;2.37;;;;;;;11.68;59.95;98007.16;126605;1095;64208;-76
2021/05/22 02:04:29;;;;;;;2.60;2.00;;;;;;;11.71;59.94;98004.20;126561;1090;63064;-76
2021/05/22 02:06:58;;;;;;;2.30;2.10;;;;;;;11.73;59.89;97995.04;127464;1095;64189;-76
2021/05/22 02:09:26;;;;;;;3.33;2.30;;;;;;;11.79;60.23;98005.16;127428;1095;63595;-76
2021/05/22 02:11:55;;;;;;;2.30;2.10;;;;;;;11.85;60.08;98009.97;127369;1098;64348;-76
2021/05/22 02:14:32;;;;;;;2.43;1.90;;;;;;;11.89;60.22;98007.84;126897;1090;64052;-75
2021/05/22 02:17:22;;;;;;;3.47;2.50;;;;;;;11.90;60.16;97997.02;127495;1095;64217;-75
2021/05/22 02:20:17;;;;;;;4.43;2.30;;;;;;;11.92;60.31;97998.70;126898;1095;64278;-75
2021/05/22 02:22:45;;;;;;;3.20;2.33;;;;;;;11.90;60.14;97988.14;127459;1095;64230;-75
2021/05/22 02:25:32;;;;;;;3.27;2.20;;;;;;;11.85;60.10;97990.41;127447;1095;64461;-75
2021/05/22 02:28:06;;;;;;;2.43;2.23;;;;;;;11.85;59.96;97983.22;127463;1095;64409;-76
2021/05/22 02:30:45;;;;;;;3.27;2.60;;;;;;;11.82;60.41;97993.36;127382;1090;64255;-76
2021/05/22 02:33:16;;;;;;;4.13;2.33;;;;;;;11.80;60.45;97996.15;127442;1089;63765;-76
2021/05/22 02:35:47;;;;;;;2.70;1.90;;;;;;;11.82;60.25;97998.70;127465;1097;64195;-76
2021/05/22 02:38:22;;;;;;;3.60;1.80;;;;;;;11.84;60.53;97994.91;127433;1095;64336;-76
2021/05/22 02:40:52;;;;;;;3.87;2.03;;;;;;;11.86;60.35;98008.98;127425;1090;62440;-76
2021/05/22 02:43:20;;;;;;;3.70;2.30;;;;;;;11.87;60.57;97994.61;127439;1095;64218;-76
2021/05/22 02:46:02;;;;;;;3.53;2.37;;;;;;;11.87;60.30;97991.09;126603;1095;62516;-76
2021/05/22 02:48:42;;;;;;;5.73;2.67;;;;;;;11.87;60.19;98007.14;127720;1095;63634;-76
2021/05/22 02:51:21;;;;;;;4.80;2.93;;;;;;;11.85;60.40;98015.33;127435;1095;64119;-76
2021/05/22 02:54:00;;;;;;;3.33;2.90;;;;;;;11.81;60.17;98013.07;127399;1095;64329;-76
2021/05/22 02:56:40;;;;;;;3.23;2.73;;;;;;;11.77;60.28;98017.84;127467;1095;64120;-76
2021/05/22 02:59:12;;;;;;;4.30;2.90;;;;;;;11.74;60.42;98001.23;127482;1095;64230;-76
2021/05/22 03:01:40;;;;;;;3.30;2.27;;;;;;;11.72;60.64;97997.87;127456;1097;63499;-76
2021/05/22 03:04:06;;;;;;;2.73;2.47;;;;;;;11.68;60.47;97993.78;127410;1097;64179;-76
2021/05/22 03:06:35;;;;;;;8.00;2.40;;;;;;;11.62;60.95;97985.34;127461;1096;64358;-76
2021/05/22 03:09:22;;;;;;;2.30;2.10;;;;;;;11.60;60.54;97984.64;127487;1095;64335;-75
2021/05/22 03:11:51;;;;;;;2.57;2.00;;;;;;;11.62;60.50;97973.80;126614;1095;64201;-76
2021/05/22 03:14:23;;;;;;;5.30;2.50;;;;;;;11.68;60.81;97980.41;127428;1097;64326;-76
2021/05/22 03:17:01;;;;;;;6.87;2.60;;;;;;;11.71;60.89;97977.46;127457;1097;64377;-76
2021/05/22 03:19:28;;;;;;;5.17;2.20;;;;;;;11.71;61.02;97986.33;126579;1095;63879;-75
2021/05/22 03:21:57;;;;;;;3.07;2.33;;;;;;;11.71;60.65;97986.33;127383;1095;64211;-75
2021/05/22 03:24:30;;;;;;;4.13;2.40;;;;;;;11.70;61.27;97973.91;126579;1097;64333;-75
2021/05/22 03:26:58;;;;;;;5.23;2.77;;;;;;;11.71;61.12;97974.78;127449;1095;64306;-76
2021/05/22 03:29:35;;;;;;;2.77;2.40;;;;;;;11.70;61.11;97978.42;127390;1098;64664;-75
2021/05/22 03:32:07;;;;;;;4.60;2.40;;;;;;;11.69;60.97;97977.58;127457;1095;64319;-76
2021/05/22 03:34:36;;;;;;;3.60;3.00;;;;;;;11.68;61.17;97996.45;127459;1097;64192;-75
2021/05/22 03:37:03;;;;;;;4.10;2.90;;;;;;;11.66;61.30;98003.78;127458;1095;64177;-75
2021/05/22 03:39:30;;;;;;;5.27;2.40;;;;;;;11.68;61.49;98017.84;126601;1095;64227;-75
2021/05/22 03:42:03;;;;;;;3.00;2.70;;;;;;;11.69;61.08;98031.07;126524;1098;62494;-75
2021/05/22 03:44:39;;;;;;;3.83;2.10;;;;;;;11.72;61.37;98030.80;127436;1097;64253;-75
2021/05/22 03:47:05;;;;;;;6.00;2.63;;;;;;;11.76;61.19;98020.64;126604;1096;64262;-75
2021/05/22 03:49:35;;;;;;;4.33;2.57;;;;;;;11.82;60.94;98020.10;126623;1097;62911;-75
2021/05/22 03:52:02;;;;;;;3.40;2.53;;;;;;;11.86;61.43;98018.84;127402;1097;64252;-75
2021/05/22 03:54:30;;;;;;;3.80;2.70;;;;;;;11.87;61.55;98018.69;126571;1095;64322;-77
2021/05/22 03:57:05;;;;;;;3.80;2.33;;;;;;;11.88;61.40;98023.05;127358;1095;64317;-76
2021/05/22 03:59:34;;;;;;;3.10;2.30;;;;;;;11.87;61.24;98018.69;127451;1095;64731;-75
2021/05/22 04:02:03;;;;;;;4.63;3.23;;;;;;;11.89;61.37;98031.91;126496;1098;63074;-76
2021/05/22 04:04:42;;;;;;;2.53;2.33;;;;;;;11.92;61.33;98030.80;126518;1090;63025;-76
2021/05/22 04:07:11;;;;;;;2.80;2.20;;;;;;;11.94;61.22;98029.66;126835;1096;64143;-75
2021/05/22 04:09:38;;;;;;;4.70;2.90;;;;;;;11.96;61.16;98025.03;127398;1098;64361;-76
2021/05/22 04:12:05;;;;;;;3.10;2.33;;;;;;;11.98;61.31;98024.88;126485;1090;64207;-75
2021/05/22 04:14:32;;;;;;;2.30;2.10;;;;;;;12.01;61.40;98024.57;126579;1095;64252;-76
2021/05/22 04:16:59;;;;;;;2.60;1.97;;;;;;;12.03;61.10;98012.75;126593;1089;64239;-76
2021/05/22 04:19:25;;;;;;;4.33;2.00;;;;;;;12.06;61.50;98006.25;127408;1095;64160;-75
2021/05/22 04:21:52;;;;;;;3.50;2.30;;;;;;;12.09;61.31;97998.80;126902;1095;64221;-75
2021/05/22 04:24:18;;;;;;;3.10;2.00;;;;;;;12.12;61.16;97998.48;126932;1095;62997;-77
2021/05/22 04:26:45;;;;;;;2.40;2.20;;;;;;;12.15;61.50;98016.08;126553;1095;64223;-76
2021/05/22 04:29:12;;;;;;;2.93;2.30;;;;;;;12.15;61.37;98011.59;126554;1090;63519;-76
2021/05/22 04:31:38;;;;;;;7.87;2.50;;;;;;;12.15;61.29;98016.94;126559;1090;63655;-75
2021/05/22 04:34:05;;;;;;;4.47;2.47;;;;;;;12.15;61.58;98006.23;126527;1097;64230;-76
2021/05/22 04:36:31;;;;;;;3.77;2.00;;;;;;;12.17;61.29;98017.63;126574;1090;64241;-76
2021/05/22 04:38:58;;;;;;;3.70;2.27;;;;;;;12.22;61.55;98017.20;126573;1097;64198;-76
2021/05/22 04:41:25;;;;;;;3.93;2.07;;;;;;;12.26;61.25;98009.70;126624;1090;63617;-75
2021/05/22 04:43:52;;;;;;;3.70;1.73;;;;;;;12.31;61.56;98015.47;126892;1090;63031;-75
2021/05/22 04:46:19;;;;;;;3.20;1.90;;;;;;;12.42;61.32;98012.61;126559;1097;63019;-76
2021/05/22 04:48:45;;;;;;;2.87;2.10;;;;;;;12.56;61.51;98005.92;126564;1090;64201;-76
2021/05/22 04:51:15;;;;;;;3.80;2.40;;;;;;;12.65;61.48;98003.17;126564;1090;62393;-75
2021/05/22 04:53:45;;;;;;;4.13;2.37;;;;;;;12.79;61.11;97996.50;126514;1098;64150;-75
2021/05/22 04:56:14;;;;;;;2.80;1.80;;;;;;;12.89;60.80;97989.23;127430;1095;62688;-75
2021/05/22 04:58:44;;;;;;;2.23;1.83;;;;;;;12.99;60.94;97991.86;127436;1097;64156;-75
2021/05/22 05:01:10;;;;;;;6.13;2.30;;;;;;;13.03;61.01;98001.26;126915;1095;64207;-76
2021/05/22 05:03:37;;;;;;;5.03;2.10;;;;;;;13.02;61.01;98004.09;126889;1095;64368;-76
2021/05/22 05:06:04;;;;;;;5.30;2.20;;;;;;;12.98;61.12;98011.61;127443;1095;64294;-75
2021/05/22 05:08:31;;;;;;;5.17;1.80;;;;;;;12.94;61.20;98002.18;126592;1095;63463;-76
2021/05/22 05:10:59;;;;;;;1.60;1.40;;;;;;;12.89;61.15;98009.82;126874;1090;64326;-75
2021/05/22 05:13:26;;;;;;;2.90;1.77;;;;;;;12.82;61.49;98025.66;127456;1089;64339;-76
2021/05/22 05:15:53;;;;;;;2.00;1.70;;;;;;;12.81;61.32;98031.17;127448;1096;64269;-76
2021/05/22 05:18:20;;;;;;;3.63;1.83;;;;;;;12.78;61.18;98028.77;127721;1095;64265;-78
2021/05/22 05:20:46;;;;;;;3.23;1.83;;;;;;;12.76;60.92;98026.25;126513;1088;63594;-76
2021/05/22 05:23:13;;;;;;;5.00;1.80;;;;;;;12.77;61.31;98027.09;126581;1095;64214;-75
2021/05/22 05:25:40;;;;;;;5.93;2.37;;;;;;;12.79;60.97;98019.73;126919;1095;62427;-75
2021/05/22 05:28:06;;;;;;;4.13;1.60;;;;;;;12.80;61.42;98021.45;126620;1089;63930;-76
2021/05/22 05:30:35;;;;;;;3.37;1.80;;;;;;;12.79;61.36;98031.33;126599;1095;62563;-76
2021/05/22 05:33:02;;;;;;;2.20;1.63;;;;;;;12.77;61.44;98029.77;126585;1090;63762;-76
2021/05/22 05:35:29;;;;;;;1.77;1.57;;;;;;;12.74;61.36;98032.77;127463;1089;64208;-75
2021/05/22 05:37:58;;;;;;;4.27;2.20;;;;;;;12.74;61.50;98027.41;127480;1090;64250;-75
2021/05/22 05:40:26;;;;;;;7.37;1.93;;;;;;;12.72;61.47;98030.21;127448;1090;64234;-76
2021/05/22 05:42:52;;;;;;;4.70;1.93;;;;;;;12.69;61.44;98042.08;127400;1097;64234;-76
2021/05/22 05:45:19;;;;;;;3.43;2.20;;;;;;;12.67;61.26;98044.07;126528;1098;63054;-76
2021/05/22 05:47:46;;;;;;;3.83;2.27;;;;;;;12.67;61.17;98040.55;126517;1090;62927;-76
2021/05/22 05:50:13;;;;;;;5.87;2.10;;;;;;;12.68;61.22;98044.91;126592;1095;63875;-76
2021/05/22 05:52:39;;;;;;;6.33;2.80;;;;;;;12.73;61.43;98048.00;127458;1090;64290;-76
2021/05/22 05:55:07;;;;;;;7.20;2.23;;;;;;;12.82;61.62;98054.28;127449;1095;62374;-76
2021/05/22 05:57:33;;;;;;;3.70;2.10;;;;;;;12.90;61.60;98049.02;127411;1097;64362;-76
2021/05/22 06:00:00;;;;;;;4.60;2.40;;;;;;;12.97;61.28;98050.94;127463;1095;64406;-76
2021/05/22 06:02:27;;;;;;;3.93;2.07;;;;;;;13.06;61.23;98059.94;127390;1097;64235;-76
2021/05/22 06:04:54;;;;;;;6.20;3.10;;;;;;;13.13;61.42;98066.38;127441;1095;64348;-76
2021/05/22 06:07:21;;;;;;;7.70;2.40;;;;;;;13.17;61.60;98064.25;127401;1098;64194;-76
2021/05/22 06:09:48;;;;;;;7.17;2.40;;;;;;;13.18;61.30;98072.14;127372;1098;63876;-76
2021/05/22 06:12:15;;;;;;;8.13;3.37;;;;;;;13.20;61.63;98072.85;126565;1090;64294;-76
2021/05/22 06:14:46;;;;;;;12.03;4.03;;;;;;;13.24;61.77;98076.09;126547;1097;64201;-76
2021/05/22 06:17:12;;;;;;;7.23;2.83;;;;;;;13.23;61.68;98069.89;127307;1090;64198;-76
2021/05/22 06:19:40;;;;;;;4.77;2.10;;;;;;;13.20;61.74;98083.58;126264;1089;64261;-77
2021/05/22 06:22:11;;;;;;;4.57;2.47;;;;;;;13.14;61.54;98070.74;125934;1095;64335;-77
2021/05/22 06:24:40;;;;;;;7.37;2.47;;;;;;;13.10;61.63;98081.91;125713;1090;64376;-76
2021/05/22 06:27:07;;;;;;;6.07;2.57;;;;;;;13.07;61.81;98077.70;125589;1095;64313;-77
2021/05/22 06:29:34;;;;;;;5.20;2.30;;;;;;;13.03;61.52;98081.66;125657;1095;64224;-81
2021/05/22 06:32:01;;;;;;;7.10;2.40;;;;;;;13.03;61.76;98086.18;125583;1089;64185;-78
2021/05/22 06:34:28;;;;;;;7.57;2.00;;;;;;;13.02;61.58;98079.14;125543;1096;64425;-76
2021/05/22 06:36:55;;;;;;;5.37;2.50;;;;;;;13.02;61.80;98081.82;125817;1095;64406;-81
2021/05/22 06:39:22;;;;;;;6.37;1.90;;;;;;;13.05;61.78;98085.06;125918;1090;64319;-79
2021/05/22 06:41:52;;;;;;;4.50;2.30;;;;;;;13.11;61.79;98088.98;125683;1090;64298;-79
2021/05/22 06:44:25;;;;;;;2.70;2.10;;;;;;;13.11;61.73;98100.55;125743;1096;64278;-79
2021/05/22 06:46:52;;;;;;;2.97;2.20;;;;;;;13.09;61.82;98115.07;125675;1090;64389;-76
2021/05/22 06:49:22;;;;;;;4.17;1.90;;;;;;;13.03;61.74;98102.27;125621;1095;64310;-76
2021/05/22 06:51:50;;;;;;;3.57;2.30;;;;;;;13.02;61.58;98101.42;125735;1095;64230;-76
2021/05/22 06:54:17;;;;;;;3.90;1.83;;;;;;;13.09;61.92;98107.87;125835;1090;64210;-78
2021/05/22 06:56:54;;;;;;;3.07;1.53;;;;;;;13.12;61.58;98106.74;125642;1095;64242;-81
2021/05/22 06:59:24;;;;;;;4.27;1.83;;;;;;;13.14;61.83;98110.95;125743;1090;64402;-76
2021/05/22 07:01:59;;;;;;;2.33;1.50;;;;;;;13.16;61.81;98114.31;125660;1090;64264;-78
2021/05/22 07:04:33;;;;;;;2.43;1.50;;;;;;;13.21;61.92;98106.70;125808;1089;64400;-79
2021/05/22 07:07:03;;;;;;;3.55;1.90;;;;;;;13.29;61.81;98094.38;126038;1090;62315;-78
2021/05/22 07:09:33;;;;;;;2.23;1.60;;;;;;;13.39;61.62;98105.90;125926;1095;64365;-81
2021/05/22 07:12:00;;;;;;;2.93;1.63;;;;;;;13.52;61.64;98106.37;125866;1097;64364;-77
2021/05/22 07:14:30;;;;;;;3.73;1.80;;;;;;;13.69;61.75;98107.38;126699;1098;64224;-76
2021/05/22 07:21:10;;;;;;;5.33;1.70;;;;;;;14.25;61.18;98103.47;127326;1098;64147;-76
2021/05/22 07:23:39;;;;;;;2.53;1.90;;;;;;;14.42;61.08;98086.47;127351;1098;64335;-76
2021/05/22 07:26:06;;;;;;;5.77;2.73;;;;;;;14.52;61.01;98084.56;127121;1098;64402;-76
2021/05/22 07:28:33;;;;;;;4.40;2.93;;;;;;;14.54;61.29;98093.30;126837;1098;64227;-76
2021/05/22 07:31:22;;;;;;;3.30;2.27;;;;;;;14.53;61.19;98090.77;126518;1093;64175;-76
2021/05/22 07:33:51;;;;;;;2.83;2.00;;;;;;;14.45;61.02;98070.05;126495;1098;64298;-75
2021/05/22 07:36:18;;;;;;;6.03;1.33;;;;;;;14.35;61.10;98085.42;127169;1098;64147;-75
2021/05/22 07:38:48;;;;;;;4.27;1.90;;;;;;;14.39;61.34;98091.34;126156;1093;63446;-79
2021/05/22 07:41:14;;;;;;;4.97;2.60;;;;;;;14.44;61.35;98089.86;125404;1098;64294;-78
2021/05/22 07:43:43;;;;;;;2.53;1.80;;;;;;;14.47;61.15;98092.25;125650;1098;64913;-78
2021/05/22 07:46:16;;;;;;;4.30;1.80;;;;;;;14.54;61.15;98063.74;125520;1094;64406;-80
2021/05/22 07:48:42;;;;;;;4.10;2.17;;;;;;;14.64;61.11;98052.05;125166;1098;64463;-83
2021/05/22 07:51:09;;;;;;;2.63;1.80;;;;;;;14.77;61.10;98066.73;125425;1090;64307;-76
2021/05/22 07:53:36;;;;;;;3.77;2.10;;;;;;;14.95;60.98;98080.08;125710;1098;64314;-76
2021/05/22 07:56:06;;;;;;;3.53;2.00;;;;;;;15.08;60.90;98085.84;125763;1090;64287;-80
2021/05/22 07:58:55;;;;;;;4.15;2.10;;;;;;;15.09;60.81;98092.06;126035;1097;64309;-78
2021/05/22 08:01:22;;;;;;;1.87;1.67;;;;;;;15.24;60.96;98078.82;125762;1098;64332;-76
2021/05/22 08:03:57;;;;;;;3.87;1.50;;;;;;;15.61;60.49;98090.00;125623;1095;64189;-76
2021/05/22 08:06:26;;;;;;;3.23;1.67;;;;;;;15.97;60.17;98084.36;125716;1098;64314;-76
2021/05/22 08:08:55;;;;;;;1.75;1.10;;;;;;;16.54;60.14;98083.42;125659;1090;64390;-78
2021/05/22 08:11:22;;;;;;;1.93;1.67;;;;;;;17.07;59.83;98081.95;125605;1090;64230;-76
2021/05/22 08:13:49;;;;;;;1.77;1.17;;;;;;;17.42;59.15;98073.33;125412;1090;64303;-78
2021/05/22 08:16:16;;;;;;;3.13;1.10;;;;;;;17.31;58.21;98078.31;125517;1098;64295;-79
2021/05/22 08:18:43;;;;;;;4.07;1.60;;;;;;;17.18;58.43;98089.67;125921;1090;64196;-77
2021/05/22 08:21:10;;;;;;;1.30;1.20;;;;;;;17.10;58.64;98100.47;125638;1090;64307;-77
2021/05/22 08:23:38;;;;;;;0.70;0.60;;;;;;;16.93;58.30;98102.41;125744;1089;64396;-80
2021/05/22 08:26:04;;;;;;;2.37;1.30;;;;;;;16.70;58.16;98100.45;125577;1098;64224;-77
2021/05/22 08:28:39;;;;;;;2.40;1.00;;;;;;;16.44;58.10;98097.11;126036;1090;64304;-78
2021/05/22 08:31:06;;;;;;;1.88;1.08;;;;;;;16.21;58.67;98094.26;125700;1098;64492;-77
2021/05/22 08:33:35;;;;;;;0.80;0.80;;;;;;;16.15;58.83;98097.63;125677;1098;64297;-77
2021/05/22 08:36:02;;;;;;;4.53;0.80;;;;;;;16.03;58.37;98090.89;125603;1090;64272;-79
2021/05/22 08:38:31;;;;;;;1.70;0.83;;;;;;;15.84;58.51;98092.06;125406;1098;64275;-79
2021/05/22 08:41:02;;;;;;;1.40;0.90;;;;;;;15.67;58.55;98094.76;125663;1098;64394;-79
2021/05/22 08:43:29;;;;;;;1.23;1.10;;;;;;;15.59;58.58;98078.58;125573;1098;64336;-78
2021/05/22 08:45:59;;;;;;;2.60;1.17;;;;;;;15.55;58.71;98084.45;125665;1095;64310;-76
2021/05/22 08:48:26;;;;;;;3.23;0.90;;;;;;;15.71;59.20;98073.72;125887;1095;64224;-77
2021/05/22 08:51:19;;;;;;;4.30;1.00;;;;;;;15.98;58.87;98074.42;125690;1098;64320;-78
2021/05/22 08:53:51;;;;;;;3.67;1.10;;;;;;;16.41;59.11;98074.05;125908;1095;64396;-79
2021/05/22 08:56:18;;;;;;;2.60;0.80;;;;;;;16.93;58.49;98067.36;125841;1095;64391;-77
2021/05/22 08:58:47;;;;;;;1.90;0.87;;;;;;;17.03;57.72;98059.88;126123;1095;64297;-81
2021/05/22 09:01:15;;;;;;;1.70;0.63;;;;;;;17.02;58.05;98060.89;125697;1097;64348;-77
2021/05/22 09:03:44;;;;;;;4.17;0.70;;;;;;;17.19;58.42;98062.51;125886;1095;64227;-80
2021/05/22 09:06:14;;;;;;;60.90;22.07;;;;;;;17.48;57.90;98067.22;125902;1095;64438;-80
2021/05/22 09:08:40;;;;;;;14.03;5.47;;;;;;;17.77;57.87;98068.42;125799;1095;64243;-78
2021/05/22 09:11:08;;;;;;;3.33;1.30;;;;;;;17.97;58.06;98077.70;125653;1095;64728;-78
2021/05/22 09:13:35;;;;;;;3.97;1.30;;;;;;;18.12;57.72;98077.74;126044;1090;64323;-80
2021/05/22 09:16:12;;;;;;;1.97;1.30;;;;;;;18.35;58.25;98078.55;125761;1095;64332;-80
2021/05/22 09:18:41;;;;;;;1.93;1.07;;;;;;;18.58;57.78;98083.91;125856;1090;64351;-77
2021/05/22 09:21:14;;;;;;;0.63;0.63;;;;;;;18.70;56.94;98076.19;125971;1095;64307;-77
2021/05/22 09:23:43;;;;;;;4.20;0.80;;;;;;;18.76;57.26;98080.02;125829;1095;64349;-78
2021/05/22 09:26:13;;;;;;;0.80;0.70;;;;;;;18.87;57.18;98071.44;126116;1090;64323;-76
2021/05/22 09:28:53;;;;;;;1.30;0.80;;;;;;;18.53;56.30;98083.63;125765;1098;64326;-81
2021/05/22 09:31:24;;;;;;;2.90;0.90;;;;;;;18.00;56.69;98074.63;125640;1090;64384;-75
2021/05/22 09:33:59;;;;;;;1.70;0.90;;;;;;;17.92;57.39;98080.11;125821;1097;64354;-77
2021/05/22 09:36:28;;;;;;;4.43;1.17;;;;;;;17.82;55.87;98074.13;125670;1090;64310;-76
2021/05/22 09:38:56;;;;;;;4.67;3.10;;;;;;;17.56;56.51;98077.98;125736;1098;64323;-78
2021/05/22 09:41:29;;;;;;;6.17;2.87;;;;;;;17.51;57.04;98077.67;125804;1090;64230;-79
2021/05/22 09:44:12;;;;;;;4.43;2.00;;;;;;;17.68;57.17;98077.55;125659;1098;64443;-77
2021/05/22 09:46:45;;;;;;;4.50;1.40;;;;;;;17.91;57.09;98085.70;125693;1090;64316;-80
2021/05/22 09:49:28;;;;;;;3.23;1.93;;;;;;;18.04;56.84;98081.36;125511;1098;64393;-80
2021/05/22 09:51:55;;;;;;;4.33;1.60;;;;;;;18.49;57.18;98074.19;125872;1096;64294;-80
2021/05/22 09:54:40;;;;;;;5.73;2.00;;;;;;;18.84;56.94;98079.95;125963;1090;64224;-77
2021/05/22 09:57:08;;;;;;;3.80;1.25;;;;;;;19.15;56.76;98085.99;125956;1090;64147;-81
2021/05/22 09:59:35;;;;;;;7.63;1.53;;;;;;;19.40;56.57;98072.11;125673;1095;64259;-76
2021/05/22 10:02:03;;;;;;;3.40;1.33;;;;;;;19.72;56.61;98068.12;125819;1095;64301;-81
2021/05/22 10:04:30;;;;;;;3.73;1.40;;;;;;;19.51;56.17;98062.66;125661;1095;64214;-77
2021/05/22 10:06:59;;;;;;;6.53;1.97;;;;;;;19.22;56.03;98067.13;125808;1095;64314;-75
2021/05/22 10:09:28;;;;;;;3.90;1.80;;;;;;;19.43;55.85;98060.91;125655;1097;64323;-79
2021/05/22 10:12:09;;;;;;;5.60;1.43;;;;;;;19.79;55.66;98055.50;125906;1090;64326;-78
2021/05/22 10:14:37;;;;;;;4.20;1.60;;;;;;;19.65;54.59;98056.38;125757;1090;64380;-78
2021/05/22 10:17:05;;;;;;;1.90;1.40;;;;;;;19.33;54.96;98057.66;126035;1095;64400;-80
2021/05/22 10:19:37;;;;;;;2.20;1.50;;;;;;;19.12;55.33;98053.05;125674;1096;64313;-79
2021/05/22 10:22:06;;;;;;;5.70;1.60;;;;;;;18.87;54.30;98053.34;125585;1098;64323;-75
2021/05/22 10:24:34;;;;;;;3.00;1.40;;;;;;;18.45;54.54;98051.27;125753;1095;64364;-75
2021/05/22 10:27:01;;;;;;;5.03;1.50;;;;;;;17.99;52.75;98059.45;125525;1090;64364;-78
2021/05/22 10:29:33;;;;;;;2.77;1.43;;;;;;;17.92;54.65;98058.50;125769;1096;64619;-78
2021/05/22 10:31:59;;;;;;;2.63;1.10;;;;;;;18.35;54.76;98062.34;125727;1090;64307;-76
2021/05/22 10:34:27;;;;;;;2.30;1.10;;;;;;;18.74;55.43;98061.28;125888;1097;64339;-77
2021/05/22 10:36:59;;;;;;;4.47;1.27;;;;;;;19.08;55.12;98052.56;125654;1090;64326;-78
2021/05/22 10:39:40;;;;;;;2.03;0.93;;;;;;;19.45;54.48;98056.97;125656;1098;64317;-77
2021/05/22 10:42:33;;;;;;;8.47;1.63;;;;;;;19.82;53.07;98063.23;125651;1097;64390;-82
2021/05/22 10:45:26;;;;;;;7.50;1.00;;;;;;;19.87;52.00;98068.91;125702;1098;64227;-76
2021/05/22 10:47:59;;;;;;;3.77;1.00;;;;;;;19.79;53.42;98074.47;125666;1098;64303;-80
2021/05/22 10:50:36;;;;;;;1.70;1.10;;;;;;;19.76;53.41;98068.58;125584;1098;64223;-79
2021/05/22 10:53:26;;;;;;;8.50;1.43;;;;;;;19.94;53.77;98069.81;125709;1090;64323;-78
2021/05/22 10:56:28;;;;;;;14.97;1.60;;;;;;;20.39;53.43;98064.14;126334;1095;64310;-80
2021/05/22 10:59:18;;;;;;;1.80;1.00;;;;;;;20.82;52.43;98061.34;126128;1089;64307;-76
2021/05/22 11:01:54;;;;;;;1.80;1.00;;;;;;;21.02;52.61;98064.99;125728;1095;64558;-77
2021/05/22 11:04:26;;;;;;;3.53;1.23;;;;;;;21.49;50.94;98052.46;125509;1097;64339;-81
2021/05/22 11:06:58;;;;;;;4.70;1.67;;;;;;;21.45;51.02;98054.77;126010;1095;64307;-80
2021/05/22 11:09:25;;;;;;;3.23;1.10;;;;;;;21.11;50.65;98057.50;125866;1089;64221;-76
2021/05/22 11:11:56;;;;;;;3.10;1.50;;;;;;;20.75;51.34;98055.88;125910;1095;64233;-79
2021/05/22 11:14:43;;;;;;;10.90;1.80;;;;;;;21.07;51.75;98064.40;126001;1090;64493;-78
2021/05/22 11:17:26;;;;;;;3.97;1.60;;;;;;;21.46;52.11;98059.16;125691;1090;64454;-77
2021/05/22 11:22:32;;;;;;;6.17;1.87;;;;;;;22.10;51.34;98066.83;125984;1090;64317;-76
2021/05/22 11:25:09;;;;;;;7.73;1.60;;;;;;;22.03;50.75;98055.09;125481;1090;64304;-77
2021/05/22 11:27:45;;;;;;;5.83;2.17;;;;;;;22.17;51.14;98063.28;125649;1090;64197;-78
2021/05/22 11:30:35;;;;;;;1.83;1.23;;;;;;;22.32;50.72;98061.18;126023;1095;64375;-77
2021/05/22 11:33:08;;;;;;;4.63;1.43;;;;;;;21.94;46.15;98056.31;125858;1095;64268;-76
2021/05/22 11:35:44;;;;;;;2.97;2.10;;;;;;;21.65;50.75;98068.41;126018;1095;64323;-77
2021/05/22 11:38:10;;;;;;;3.13;1.87;;;;;;;21.99;50.07;98072.02;125676;1090;64457;-81
2021/05/22 11:40:50;;;;;;;2.10;1.20;;;;;;;22.21;50.18;98061.83;125742;1095;64450;-77
2021/05/22 11:43:34;;;;;;;;;;;;;;;;;;;;;
2021/05/22 11:46:07;;;;;;;4.00;1.20;;;;;;;21.27;47.46;98068.87;126120;1095;64281;-81
2021/05/22 11:48:49;;;;;;;2.70;1.20;;;;;;;20.80;49.07;98069.66;125579;1095;64693;-76
2021/05/22 11:51:32;;;;;;;2.03;1.00;;;;;;;20.40;47.44;98063.94;125704;1096;64387;-79